Data for 07/16/2014

Time Sea-Level Adjusted Pressure Absolute Pressure Temperature Relative Humidity Dew Point   
(mb) (inHg) (mb) (inHg) (C) (F) (%) (C) (F)
00:05 1022 30.18 851 25.13 13.6 56.5 90 12 53.6
00:10 1022 30.18 851 25.13 13.6 56.4 90 12 53.7
00:15 1022 30.18 851 25.13 13.6 56.4 90 12 53.6
00:20 1022 30.18 851 25.13 13.6 56.5 89 11.9 53.4
00:25 1022 30.18 851 25.13 13.7 56.7 89 12 53.6
00:30 1022 30.18 851 25.13 13.8 56.8 88 11.8 53.2
00:35 1022 30.18 851 25.13 13.9 57 88 11.9 53.3
00:40 1022 30.18 851 25.13 13.9 57 87 11.8 53.2
00:45 1022 30.18 851 25.13 13.8 56.9 86 11.6 52.9
00:50 1022 30.18 851 25.13 13.9 56.9 87 11.7 53.1
00:55 1022 30.18 851 25.13 13.9 57 87 11.8 53.2
01:00 1022 30.18 851 25.13 13.9 57 85 11.4 52.6
01:05 1022 30.18 851 25.13 13.9 57.1 85 11.5 52.6
01:10 1022 30.18 851 25.13 13.9 57 85 11.4 52.5
01:15 1022 30.18 851 25.13 13.8 56.9 86 11.5 52.6
01:20 1022 30.18 851 25.13 13.8 56.9 85 11.4 52.5
01:25 1022 30.18 851 25.13 13.9 57 84 11.3 52.3
01:30 1022 30.18 851 25.13 13.9 57 85 11.4 52.5
01:35 1022 30.18 851 25.13 13.9 57.1 85 11.4 52.5
01:40 1022 30.18 851 25.13 13.9 57.1 85 11.4 52.6
01:45 1022 30.18 851 25.13 14 57.1 85 11.5 52.6
01:50 1022 30.18 851 25.13 13.9 57.1 84 11.4 52.5
01:55 1022 30.18 851 25.13 14 57.1 86 11.6 52.9
02:00 1022 30.18 851 25.13 13.9 57 85 11.5 52.7
02:05 1022 30.18 851 25.13 13.9 56.9 86 11.6 52.9
02:10 1022 30.18 851 25.13 13.8 56.8 87 11.6 52.9
02:15 1022 30.18 851 25.13 13.8 56.8 86 11.5 52.8
02:20 1022 30.18 851 25.13 13.7 56.7 86 11.5 52.7
02:25 1022 30.18 851 25.13 13.7 56.7 87 11.5 52.7
02:30 1022 30.18 851 25.13 13.7 56.6 87 11.5 52.7
02:35 1022 30.18 851 25.13 13.6 56.5 87 11.5 52.6
02:40 1022 30.18 851 25.13 13.6 56.6 87 11.5 52.7
02:45 1022 30.18 851 25.13 13.6 56.6 86 11.4 52.6
02:50 1022 30.18 851 25.13 13.6 56.5 87 11.5 52.6
02:55 1022 30.18 851 25.13 13.6 56.4 87 11.5 52.6
03:00 1022 30.18 851 25.13 13.6 56.4 87 11.4 52.5
03:05 1022 30.18 851 25.13 13.6 56.4 87 11.5 52.7
03:10 1022 30.18 851 25.13 13.5 56.2 88 11.5 52.8
03:15 1022 30.18 851 25.13 13.4 56.2 88 11.4 52.6
03:20 1022 30.18 851 25.13 13.4 56.2 88 11.5 52.7
03:25 1022 30.18 851 25.13 13.4 56.2 88 11.5 52.8
03:30 1022 30.18 852 25.16 13.5 56.2 88 11.5 52.6
03:35 1022 30.18 852 25.16 13.4 56.2 86 11.2 52.2
03:40 1022 30.18 852 25.16 13.5 56.3 86 11.2 52.2
03:45 1022 30.18 852 25.16 13.5 56.4 86 11.3 52.3
03:50 1022 30.18 851 25.13 13.6 56.4 85 11.1 52.1
03:55 1022 30.18 851 25.13 13.6 56.4 86 11.3 52.3
04:00 1022 30.18 851 25.13 13.6 56.4 86 11.2 52.2
04:05 1022 30.18 851 25.13 13.5 56.4 87 11.4 52.4
04:10 1022 30.18 851 25.13 13.5 56.3 87 11.3 52.4
04:15 1022 30.18 851 25.13 13.5 56.3 88 11.5 52.8
04:20 1022 30.18 851 25.13 13.4 56 88 11.4 52.5
04:25 1022 30.18 851 25.13 13.2 55.8 89 11.4 52.5
04:30 1022 30.18 851 25.13 12.9 55.3 89 11.2 52.1
04:35 1022 30.18 851 25.13 12.8 55 90 11.1 52
04:40 1022 30.18 851 25.13 12.6 54.7 90 11 51.9
04:45 1022 30.18 852 25.16 12.6 54.6 90 11 51.8
04:50 1022 30.18 852 25.16 12.6 54.6 91 11.1 52
04:55 1022 30.18 852 25.16 12.6 54.7 90 11.1 51.9
05:00 1022 30.18 852 25.16 12.6 54.7 89 10.9 51.7
05:05 1022 30.18 851 25.13 12.7 54.9 89 11 51.9
05:10 1022 30.18 851 25.13 12.8 55 89 11 51.8
05:15 1022 30.18 851 25.13 12.8 55.1 87 10.8 51.5
05:20 1022 30.18 851 25.13 13.1 55.6 86 10.9 51.6
05:25 1022 30.18 851 25.13 13.2 55.7 86 10.8 51.4
05:30 1022 30.18 852 25.16 12.9 55.3 86 10.7 51.2
05:35 1022 30.18 852 25.16 12.7 54.9 87 10.6 51.1
05:40 1022 30.18 852 25.16 12.7 54.9 86 10.4 50.8
05:45 1022 30.18 852 25.16 12.8 55.1 85 10.4 50.7
05:50 1022 30.18 852 25.16 13 55.4 84 10.4 50.6
05:55 1022 30.18 852 25.16 13.4 56 82 10.4 50.7
06:00 1022 30.18 852 25.16 13.5 56.4 82 10.5 50.9
06:05 1022 30.18 852 25.16 13.6 56.5 81 10.4 50.7
06:10 1022 30.18 852 25.16 14 57.2 81 10.8 51.5
06:15 1022 30.18 852 25.16 14.3 57.7 80 10.9 51.5
06:20 1022 30.18 852 25.16 14.4 57.9 79 10.8 51.5
06:25 1022 30.18 852 25.16 14.5 58.1 80 11.1 51.9
06:30 1022 30.18 852 25.16 14.7 58.4 79 11.1 52
06:35 1022 30.18 852 25.16 15.1 59.2 77 11.1 52
06:40 1022 30.18 852 25.16 15.7 60.2 75 11.2 52.2
06:45 1022 30.18 852 25.16 15.8 60.4 74 11.3 52.3
06:50 1022 30.18 852 25.16 16 60.8 73 11.3 52.3
06:55 1022 30.18 852 25.16 16.4 61.5 74 11.7 53
07:00 1022 30.18 852 25.16 16.9 62.3 69 11.2 52.2
07:05 1022 30.18 852 25.16 17.3 63.1 68 11.4 52.6
07:10 1022 30.18 852 25.16 17.4 63.2 69 11.7 53
07:15 1022 30.18 852 25.16 17 62.5 71 11.7 53.1
07:20 1022 30.18 852 25.16 16.4 61.6 71 11.2 52.2
07:25 1022 30.18 851 25.13 16.8 62.2 69 11.1 52.1
07:30 1022 30.18 851 25.13 17.3 63.2 68 11.4 52.4
07:35 1022 30.18 851 25.13 17.9 64.1 67 11.7 53.1
07:40 1022 30.18 851 25.13 17.7 63.8 66 11.3 52.4
07:45 1022 30.18 851 25.13 17.9 64.3 62 10.7 51.3
07:50 1022 30.18 851 25.13 18.6 65.4 59 10.4 50.7
07:55 1022 30.18 852 25.16 18.2 64.7 61 10.6 51.1
08:00 1022 30.18 852 25.16 17.7 63.8 62 10.5 50.9
08:05 1022 30.18 852 25.16 17.9 64.1 62 10.5 50.9
08:10 1022 30.18 852 25.16 18.1 64.6 58 9.8 49.6
08:15 1022 30.18 852 25.16 18.1 64.7 56 9.3 48.7
08:20 1022 30.18 852 25.16 18.5 65.2 56 9.6 49.2
08:25 1022 30.18 852 25.16 18.7 65.7 54 9.4 49
08:30 1022 30.18 852 25.16 19.2 66.6 53 9.5 49.1
08:35 1022 30.18 851 25.13 19.6 67.2 51 9.4 48.9
08:40 1022 30.18 851 25.13 19.6 67.3 52 9.6 49.3
08:45 1022 30.18 851 25.13 19.5 67 53 9.7 49.4
08:50 1022 30.18 851 25.13 19.6 67.3 50 9.1 48.3
08:55 1022 30.18 851 25.13 19.7 67.5 50 9.3 48.7
09:00 1022 30.18 851 25.13 20.2 68.3 48 8.8 47.9
09:05 1022 30.18 851 25.13 20.6 69.2 47 9 48.2
09:10 1022 30.18 851 25.13 20.1 68.2 48 8.8 47.9
09:15 1022 30.18 851 25.13 20.1 68.1 46 8.1 46.5
09:20 1022 30.18 851 25.13 20.4 68.8 47 8.8 47.8
09:25 1022 30.18 851 25.13 20.8 69.4 45 8.5 47.2
09:30 1022 30.18 851 25.13 19.9 67.8 48 8.8 47.8
09:35 1022 30.18 851 25.13 20.6 69 43 7.8 46
09:40 1022 30.18 851 25.13 21.5 70.7 42 8.4 47.1
09:45 1022 30.18 851 25.13 21.9 71.5 42 8.5 47.2
09:50 1022 30.18 851 25.13 21.4 70.5 40 7.5 45.5
09:55 1022 30.18 851 25.13 21 69.8 44 8.6 47.4
10:00 1022 30.18 851 25.13 21.4 70.5 41 7.8 46
10:05 1022 30.18 851 25.13 21.7 71.1 42 8.5 47.4
10:10 1022 30.18 851 25.13 22.2 71.9 42 8.7 47.7
10:15 1022 30.18 851 25.13 21.9 71.4 45 9.5 49.1
10:20 1022 30.18 851 25.13 21.8 71.2 44 9.1 48.4
10:25 1022 30.18 851 25.13 22.2 71.9 42 8.8 47.8
10:30 1022 30.18 851 25.13 22.5 72.5 41 8.8 47.8
10:35 1022 30.18 851 25.13 22.8 73 41 8.9 48
10:40 1022 30.18 851 25.13 22.2 72 41 8.5 47.4
10:45 1022 30.18 851 25.13 22.8 73.1 41 9 48.1
10:50 1022 30.18 851 25.13 22.7 72.8 42 9.4 48.9
10:55 1022 30.18 851 25.13 22.7 72.9 41 9 48.1
11:00 1022 30.18 851 25.13 22.5 72.5 41 9 48.1
11:05 1022 30.18 851 25.13 22.6 72.6 42 9.1 48.5
11:10 1022 30.18 851 25.13 23.2 73.7 41 9.5 49.1
11:15 1022 30.18 851 25.13 23.2 73.7 40 9.2 48.5
11:20 1022 30.18 851 25.13 22.6 72.7 41 8.8 47.8
11:25 1022 30.18 851 25.13 23.1 73.5 39 8.5 47.3
11:30 1022 30.18 851 25.13 23.5 74.4 38 8.7 47.6
11:35 1022 30.18 851 25.13 23.3 73.9 39 8.8 47.8
11:40 1022 30.18 851 25.13 23.2 73.8 37 8.1 46.6
11:45 1022 30.18 851 25.13 23.1 73.5 39 8.6 47.5
11:50 1022 30.18 851 25.13 23.4 74 37 8.1 46.6
11:55 1022 30.18 851 25.13 23.5 74.4 38 8.7 47.6
12:00 1022 30.18 851 25.13 23.8 74.9 37 8.4 47.2
12:05 1022 30.18 851 25.13 24.3 75.8 38 9.5 49
12:10 1022 30.18 851 25.13 24.1 75.5 38 9.2 48.5
12:15 1022 30.18 851 25.13 24 75.2 37 8.6 47.4
12:20 1022 30.18 851 25.13 24.2 75.6 37 8.7 47.7
12:25 1022 30.18 851 25.13 24.5 76 35 8.1 46.7
12:30 1022 30.18 851 25.13 24.3 75.7 34 7.7 45.9
12:35 1021 30.15 851 25.13 24.2 75.6 35 8 46.3
12:40 1021 30.15 851 25.13 24.8 76.7 34 8.2 46.7
12:45 1021 30.15 851 25.13 25.1 77.2 30 6.6 43.9
12:50 1021 30.15 851 25.13 24.3 75.8 30 6.1 42.9
12:55 1021 30.15 851 25.13 24.6 76.4 28 5.4 41.7
13:00 1021 30.15 851 25.13 24.7 76.4 31 6.8 44.3
13:05 1021 30.15 851 25.13 24.9 76.8 30 6.5 43.8
13:10 1021 30.15 851 25.13 25.4 77.6 30 6.6 43.9
13:15 1021 30.15 851 25.13 25.2 77.3 31 7 44.5
13:20 1021 30.15 850 25.1 24.7 76.5 31 6.5 43.7
13:25 1021 30.15 850 25.1 25.1 77.2 29 6.3 43.3
13:30 1021 30.15 850 25.1 25 76.9 31 7 44.6
13:35 1021 30.15 850 25.1 25.3 77.5 28 5.8 42.5
13:40 1021 30.15 850 25.1 25.6 78.2 27 5.3 41.5
13:45 1021 30.15 850 25.1 26.4 79.4 27 6.3 43.3
13:50 1021 30.15 850 25.1 26 78.8 28 6.2 43.1
13:55 1021 30.15 850 25.1 25.4 77.6 30 6.7 44
14:00 1021 30.15 850 25.1 25.7 78.2 30 6.9 44.4
14:05 1021 30.15 850 25.1 25.8 78.4 28 6.3 43.4
14:10 1021 30.15 850 25.1 25.8 78.4 29 6.5 43.7
14:15 1021 30.15 850 25.1 25.8 78.5 29 6.7 44.1
14:20 1021 30.15 850 25.1 25.8 78.4 28 6.1 43
14:25 1021 30.15 850 25.1 25.2 77.3 29 6.2 43.2
14:30 1021 30.15 850 25.1 25.3 77.5 28 5.9 42.6
14:35 1021 30.15 850 25.1 25.7 78.2 28 6.1 42.9
14:40 1021 30.15 850 25.1 25.9 78.6 30 7.1 44.9
14:45 1021 30.15 850 25.1 25.7 78.2 29 6.3 43.4
14:50 1021 30.15 850 25.1 24.5 76.1 31 6.4 43.5
14:55 1021 30.15 850 25.1 24.9 76.9 29 6.1 43
15:00 1021 30.15 850 25.1 25.7 78.2 28 6.2 43.1
15:05 1021 30.15 850 25.1 25.6 78.1 28 5.8 42.5
15:10 1021 30.15 850 25.1 25.2 77.4 28 5.6 42.1
15:15 1021 30.15 850 25.1 24.7 76.4 28 5.3 41.5
15:20 1021 30.15 850 25.1 25.3 77.5 28 5.7 42.2
15:25 1021 30.15 850 25.1 26.2 79.1 27 6 42.9
15:30 1021 30.15 850 25.1 26.2 79.2 27 6 42.8
15:35 1021 30.15 850 25.1 26 78.8 27 5.7 42.2
15:40 1021 30.15 850 25.1 26.4 79.5 25 4.9 40.9
15:45 1021 30.15 850 25.1 26.3 79.4 25 5 40.9
15:50 1020 30.12 850 25.1 26.5 79.6 25 5.3 41.5
15:55 1020 30.12 850 25.1 25.7 78.3 25 4.6 40.3
16:00 1020 30.12 849 25.07 26.4 79.6 25 5.3 41.6
16:05 1020 30.12 849 25.07 26.9 80.4 24 4.8 40.7
16:10 1020 30.12 849 25.07 27.1 80.8 24 5.1 41.2
16:15 1020 30.12 849 25.07 27.1 80.9 23 4.8 40.6
16:20 1020 30.12 849 25.07 27.3 81.1 23 4.4 39.9
16:25 1020 30.12 849 25.07 26.6 80 25 5.5 41.9
16:30 1020 30.12 849 25.07 26.7 80 24 4.6 40.3
16:35 1020 30.12 849 25.07 26.9 80.5 24 4.9 40.8
16:40 1020 30.12 849 25.07 27.1 80.7 24 5.1 41.1
16:45 1020 30.12 849 25.07 27.1 80.8 23 4.4 40
16:50 1020 30.12 849 25.07 26.5 79.7 25 5.3 41.6
16:55 1020 30.12 849 25.07 25.4 77.7 25 4.2 39.5
17:00 1020 30.12 849 25.07 25.3 77.6 26 4.6 40.3
17:05 1020 30.12 849 25.07 25.7 78.3 25 4.5 40
17:10 1020 30.12 849 25.07 26.1 78.9 24 4.5 40.1
17:15 1020 30.12 849 25.07 25.2 77.4 27 5 40.9
17:20 1020 30.12 849 25.07 25.1 77.3 27 5 41
17:25 1020 30.12 849 25.07 25.4 77.7 26 4.7 40.4
17:30 1020 30.12 849 25.07 25.6 78 26 4.9 40.9
17:35 1020 30.12 849 25.07 25.4 77.8 27 5.1 41.2
17:40 1020 30.12 849 25.07 25 77 27 4.8 40.6
17:45 1020 30.12 849 25.07 25.1 77.1 27 5 40.9
17:50 1020 30.12 849 25.07 24.5 76.2 27 4.7 40.5
17:55 1020 30.12 849 25.07 24.6 76.3 28 5.3 41.6
18:00 1020 30.12 849 25.07 24.8 76.7 27 5 40.9
18:05 1020 30.12 849 25.07 24.8 76.7 28 5.5 41.9
18:10 1020 30.12 849 25.07 24.8 76.6 27 5 41
18:15 1020 30.12 849 25.07 24.4 75.9 29 5.3 41.5
18:20 1020 30.12 849 25.07 24.1 75.4 29 5.1 41.2
18:25 1020 30.12 849 25.07 23.9 75.1 30 5.3 41.6
18:30 1020 30.12 849 25.07 23.9 75 29 5 41
18:35 1020 30.12 849 25.07 24 75.2 29 5 41
18:40 1020 30.12 849 25.07 24 75.1 31 6.1 43
18:45 1020 30.12 849 25.07 23.9 74.9 30 5.5 41.9
18:50 1019 30.09 849 25.07 23.8 74.9 29 5 40.9
18:55 1020 30.12 849 25.07 23.8 74.8 29 5 41.1
19:00 1019 30.09 849 25.07 23.8 74.8 30 5.5 41.9
19:05 1020 30.12 849 25.07 23.7 74.6 30 5.3 41.5
19:10 1020 30.12 849 25.07 23.6 74.5 30 5 41
19:15 1020 30.12 849 25.07 23.5 74.3 28 4.1 39.4
19:20 1020 30.12 849 25.07 23.5 74.3 31 5.8 42.4
19:25 1020 30.12 849 25.07 23.2 73.8 30 4.8 40.6
19:30 1020 30.12 849 25.07 23 73.4 40 9 48.2
19:35 1020 30.12 849 25.07 22.2 71.9 44 9.4 49
19:40 1019 30.09 849 25.07 21.8 71.2 41 8 46.4
19:45 1019 30.09 849 25.07 21.6 70.9 42 8.3 47
19:50 1019 30.09 849 25.07 21.3 70.4 43 8.2 46.8
19:55 1019 30.09 849 25.07 21 69.7 44 8.4 47.1
20:00 1019 30.09 849 25.07 20.7 69.2 45 8.3 46.9
20:05 1019 30.09 849 25.07 20.3 68.6 46 8.4 47.2
20:10 1019 30.09 849 25.07 20.1 68.2 46 8.3 46.9
20:15 1019 30.09 849 25.07 19.8 67.7 47 8.2 46.8
20:20 1019 30.09 849 25.07 19.5 67.1 50 9 48.2
20:25 1019 30.09 849 25.07 19.1 66.3 48 8.1 46.6
20:30 1019 30.09 849 25.07 18.8 65.8 49 8 46.5
20:35 1020 30.12 849 25.07 18.6 65.4 50 8.2 46.7
20:40 1020 30.12 849 25.07 18.4 65.1 50 7.8 46
20:45 1020 30.12 849 25.07 18.3 65 49 7.6 45.7
20:50 1020 30.12 849 25.07 18.4 65.1 49 7.7 45.8
20:55 1020 30.12 849 25.07 18.3 64.9 45 6.4 43.6
21:00 1020 30.12 849 25.07 18.7 65.7 44 6.4 43.5
21:05 1020 30.12 849 25.07 18.8 65.8 46 7 44.6
21:10 1020 30.12 849 25.07 18.5 65.3 46 7 44.5
21:15 1020 30.12 849 25.07 18.4 65.1 47 7 44.6
21:20 1020 30.12 849 25.07 18.2 64.8 49 7.4 45.3
21:25 1020 30.12 849 25.07 17.8 64.1 50 7.3 45.1
21:30 1020 30.12 849 25.07 17.7 63.9 50 7.3 45.1
21:35 1020 30.12 849 25.07 17.7 63.8 51 7.6 45.7
21:40 1020 30.12 849 25.07 17.6 63.7 52 7.6 45.7
21:45 1020 30.12 849 25.07 17.7 63.9 50 7.3 45.2
21:50 1020 30.12 849 25.07 17.7 63.8 50 7.2 44.9
21:55 1020 30.12 849 25.07 17.6 63.6 51 7.5 45.4
22:00 1020 30.12 849 25.07 17.4 63.2 51 7.2 44.9
22:05 1020 30.12 849 25.07 17.2 62.9 52 7.2 45
22:10 1020 30.12 849 25.07 17.1 62.8 51 7 44.6
22:15 1020 30.12 849 25.07 17 62.5 51 6.9 44.4
22:20 1020 30.12 849 25.07 17 62.5 52 7.1 44.7
22:25 1020 30.12 849 25.07 17 62.7 50 6.5 43.8
22:30 1020 30.12 849 25.07 17.1 62.7 51 7 44.5
22:35 1020 30.12 849 25.07 17.1 62.7 49 6.3 43.3
22:40 1020 30.12 849 25.07 17 62.5 50 6.7 44
22:45 1020 30.12 849 25.07 16.9 62.4 50 6.4 43.6
22:50 1020 30.12 849 25.07 16.9 62.4 49 6.2 43.2
22:55 1020 30.12 849 25.07 16.9 62.5 49 6.2 43.2
23:00 1020 30.12 849 25.07 16.9 62.4 49 6.3 43.3
23:05 1020 30.12 849 25.07 16.8 62.2 50 6.3 43.3
23:10 1020 30.12 849 25.07 16.6 61.8 51 6.4 43.6
23:15 1020 30.12 849 25.07 16.4 61.5 51 6.2 43.2
23:20 1020 30.12 849 25.07 16.3 61.3 51 6.3 43.3
23:25 1020 30.12 849 25.07 16.2 61.2 51 6.2 43.1
23:30 1020 30.12 849 25.07 16.3 61.3 50 6 42.8
23:35 1020 30.12 849 25.07 16.4 61.6 50 6.1 42.9
23:40 1020 30.12 849 25.07 16.4 61.6 51 6.2 43.2
23:45 1020 30.12 849 25.07 16.1 61 51 6.2 43.1
23:50 1020 30.12 849 25.07 16.1 60.9 51 6.1 43.1
23:55 1020 30.12 849 25.07 16 60.8 52 6.3 43.4
24:00 1020 30.12 849 25.07 15.9 60.6 52 6.1 43